createdAt,value
2018-01-01T00:00:05.912Z,8.36
2018-01-01T00:01:10.886Z,8.28
2018-01-01T00:02:16.161Z,8.32
2018-01-01T00:03:21.165Z,8.40
2018-01-01T00:04:28.672Z,8.41
2018-01-01T00:05:34.037Z,8.22
2018-01-01T00:06:39.031Z,8.32
2018-01-01T00:07:44.098Z,8.32
2018-01-01T00:08:49.157Z,8.41
2018-01-01T00:09:54.231Z,8.52
2018-01-01T00:11:01.290Z,8.42
2018-01-01T00:12:06.659Z,8.46
2018-01-01T00:13:11.827Z,8.44
2018-01-01T00:14:16.721Z,8.45
2018-01-01T00:15:21.596Z,8.43
2018-01-01T00:16:26.514Z,8.40
2018-01-01T00:17:31.453Z,8.37
2018-01-01T00:18:36.816Z,8.34
2018-01-01T00:19:41.788Z,8.21
2018-01-01T00:20:46.713Z,8.12
2018-01-01T00:21:51.582Z,7.94
2018-01-01T00:22:56.490Z,7.08
2018-01-01T00:24:01.374Z,6.26
2018-01-01T00:25:06.696Z,6.32
2018-01-01T00:26:12.172Z,6.19
2018-01-01T00:27:17.200Z,6.01
2018-01-01T00:28:22.113Z,6.09
2018-01-01T00:29:28.739Z,6.39
2018-01-01T00:30:33.555Z,6.43
2018-01-01T00:31:38.777Z,6.44
2018-01-01T00:32:43.421Z,6.49
2018-01-01T00:33:48.389Z,6.49
2018-01-01T00:34:53.282Z,6.56
2018-01-01T00:35:58.321Z,6.63
2018-01-01T00:37:03.221Z,6.64
2018-01-01T00:38:09.138Z,6.58
2018-01-01T00:39:14.035Z,6.61
2018-01-01T00:40:18.883Z,6.77
2018-01-01T00:41:23.753Z,6.81
2018-01-01T00:42:28.723Z,6.98
2018-01-01T00:43:33.588Z,7.12
2018-01-01T00:44:38.908Z,7.18
2018-01-01T00:45:43.841Z,7.32
2018-01-01T00:46:48.737Z,7.28
2018-01-01T00:47:53.589Z,7.40
2018-01-01T00:48:58.568Z,7.42
2018-01-01T00:50:03.489Z,7.53
2018-01-01T00:51:08.938Z,7.58
2018-01-01T00:52:13.692Z,7.52
2018-01-01T00:53:18.446Z,7.32
2018-01-01T00:54:23.179Z,6.97
2018-01-01T00:55:27.955Z,6.58
2018-01-01T00:56:32.876Z,6.44
2018-01-01T00:57:38.189Z,6.48
2018-01-01T00:58:43.107Z,6.44
2018-01-01T00:59:48.018Z,6.42
2018-01-01T01:00:53.126Z,6.32
2018-01-01T01:01:57.939Z,6.29
2018-01-01T01:03:02.895Z,6.31
2018-01-01T01:04:08.088Z,6.30
2018-01-01T01:05:13.055Z,6.16
2018-01-01T01:06:18.008Z,6.16
2018-01-01T01:07:22.971Z,6.20
2018-01-01T01:08:27.893Z,6.16
2018-01-01T01:09:32.812Z,6.08
2018-01-01T01:10:38.022Z,6.10
2018-01-01T01:11:42.908Z,6.09
2018-01-01T01:12:47.800Z,6.14
2018-01-01T01:13:52.720Z,6.06
2018-01-01T01:14:57.658Z,6.11
2018-01-01T01:16:02.548Z,6.08
2018-01-01T01:17:07.640Z,6.06
2018-01-01T01:18:12.457Z,5.89
2018-01-01T01:19:17.318Z,5.92
2018-01-01T01:20:22.229Z,5.85
2018-01-01T01:21:27.100Z,5.94
2018-01-01T01:22:31.976Z,6.02
2018-01-01T01:23:37.271Z,5.99
2018-01-01T01:24:42.167Z,6.07
2018-01-01T01:25:47.118Z,6.02
2018-01-01T01:26:52.985Z,5.96
2018-01-01T01:27:57.975Z,5.98
2018-01-01T01:29:03.188Z,5.95
2018-01-01T01:30:08.994Z,5.95
2018-01-01T01:31:13.903Z,5.95
2018-01-01T01:32:18.888Z,5.94
2018-01-01T01:33:23.888Z,5.96
2018-01-01T01:34:28.764Z,5.84
2018-01-01T01:35:33.486Z,5.96
2018-01-01T01:36:38.707Z,5.89
2018-01-01T01:37:43.597Z,5.68
2018-01-01T01:38:48.460Z,5.61
2018-01-01T01:39:53.376Z,5.73
2018-01-01T01:40:58.328Z,5.76
2018-01-01T01:42:03.185Z,5.66
2018-01-01T01:43:08.517Z,5.76
2018-01-01T01:44:13.415Z,5.74
2018-01-01T01:45:18.368Z,5.70
2018-01-01T01:46:23.322Z,5.74
2018-01-01T01:47:28.601Z,5.85
2018-01-01T01:48:37.764Z,5.74
2018-01-01T01:49:42.671Z,5.79
2018-01-01T01:50:47.550Z,5.80
2018-01-01T01:51:52.408Z,5.67
2018-01-01T01:52:58.236Z,5.73
2018-01-01T01:54:03.188Z,5.64
2018-01-01T01:55:08.514Z,5.56
2018-01-01T01:56:13.448Z,5.54
2018-01-01T01:57:18.349Z,5.54
2018-01-01T01:58:23.384Z,5.53
2018-01-01T01:59:28.166Z,5.58
2018-01-01T02:00:33.188Z,5.54
2018-01-01T02:01:39.197Z,5.49
2018-01-01T02:02:44.186Z,5.61
2018-01-01T02:03:48.977Z,5.63
2018-01-01T02:04:54.606Z,5.64
2018-01-01T02:05:59.471Z,5.66
2018-01-01T02:07:04.368Z,5.70
2018-01-01T02:08:09.173Z,5.71
2018-01-01T02:09:14.104Z,5.67
2018-01-01T02:10:19.592Z,5.65
2018-01-01T02:11:24.561Z,5.64
2018-01-01T02:12:29.517Z,5.58
2018-01-01T02:13:34.828Z,5.64
2018-01-01T02:14:39.793Z,5.60
2018-01-01T02:15:44.960Z,5.71
2018-01-01T02:16:49.944Z,5.74
2018-01-01T02:17:54.961Z,5.75
2018-01-01T02:18:59.936Z,5.75
2018-01-01T02:20:05.531Z,5.76
2018-01-01T02:21:10.465Z,5.77
2018-01-01T02:22:15.488Z,5.78
2018-01-01T02:23:20.429Z,5.79
2018-01-01T02:24:25.292Z,5.69
2018-01-01T02:25:30.583Z,5.75
2018-01-01T02:26:36.442Z,5.72
2018-01-01T02:27:41.906Z,5.67
2018-01-01T02:28:47.409Z,5.64
2018-01-01T02:29:52.373Z,5.58
2018-01-01T02:30:57.381Z,5.53
2018-01-01T02:32:03.384Z,5.60
2018-01-01T02:33:09.000Z,5.54
2018-01-01T02:34:13.997Z,5.67
2018-01-01T02:35:19.048Z,5.69
2018-01-01T02:36:24.005Z,5.79
2018-01-01T02:37:29.014Z,5.83
2018-01-01T02:38:33.961Z,5.86
2018-01-01T02:39:39.333Z,5.79
2018-01-01T02:40:44.314Z,5.73
2018-01-01T02:41:49.265Z,5.70
2018-01-01T02:42:54.226Z,5.75
2018-01-01T02:45:14.743Z,5.61
2018-01-01T02:46:20.033Z,5.49
2018-01-01T02:47:24.971Z,5.57
2018-01-01T02:48:29.928Z,5.39
2018-01-01T02:49:34.906Z,5.29
2018-01-01T02:50:39.908Z,5.24
2018-01-01T02:51:44.684Z,5.31
2018-01-01T02:52:50.728Z,5.30
2018-01-01T02:53:55.682Z,5.28
2018-01-01T02:55:00.433Z,5.23
2018-01-01T02:56:05.209Z,5.23
2018-01-01T02:57:10.195Z,5.28
2018-01-01T02:58:15.252Z,5.38
2018-01-01T02:59:20.517Z,5.37
2018-01-01T03:00:25.406Z,5.46
2018-01-01T03:01:30.374Z,5.38
2018-01-01T03:02:35.302Z,5.35
2018-01-01T03:03:40.151Z,5.45
2018-01-01T03:04:45.083Z,5.34
2018-01-01T03:05:50.486Z,5.41
2018-01-01T03:06:55.326Z,5.46
2018-01-01T03:08:00.249Z,5.57
2018-01-01T03:09:05.236Z,5.57
2018-01-01T03:10:10.107Z,5.64
2018-01-01T03:11:14.945Z,5.59
2018-01-01T03:12:20.320Z,5.51
2018-01-01T03:13:25.200Z,5.54
2018-01-01T03:14:30.058Z,5.49
2018-01-01T03:15:34.874Z,5.47
2018-01-01T03:16:39.755Z,5.49
2018-01-01T03:17:44.527Z,5.50
2018-01-01T03:18:49.736Z,5.60
2018-01-01T03:19:54.556Z,5.57
2018-01-01T03:20:59.362Z,5.71
2018-01-01T03:22:04.235Z,5.63
2018-01-01T03:23:09.142Z,5.54
2018-01-01T03:24:14.067Z,5.51
2018-01-01T03:25:20.253Z,5.52
2018-01-01T03:26:25.095Z,5.49
2018-01-01T03:27:29.973Z,5.58
2018-01-01T03:28:34.849Z,5.71
2018-01-01T03:29:39.677Z,5.63
2018-01-01T03:30:44.497Z,5.66
2018-01-01T03:31:50.678Z,5.66
2018-01-01T03:32:55.560Z,5.64
2018-01-01T03:34:00.429Z,5.76
2018-01-01T03:35:05.338Z,5.70
2018-01-01T03:36:10.196Z,5.87
2018-01-01T03:37:15.056Z,5.94
2018-01-01T03:38:20.375Z,5.99
2018-01-01T03:39:25.186Z,6.03
2018-01-01T03:40:30.988Z,5.91
2018-01-01T03:41:35.760Z,5.91
2018-01-01T03:42:40.501Z,5.87
2018-01-01T03:43:45.431Z,5.87
2018-01-01T03:44:50.679Z,5.99
2018-01-01T03:45:56.534Z,6.08
2018-01-01T03:47:01.347Z,5.96
2018-01-01T03:48:06.265Z,5.94
2018-01-01T03:49:11.139Z,6.05
2018-01-01T03:50:15.942Z,6.06
2018-01-01T03:51:21.264Z,5.85
2018-01-01T03:52:26.132Z,5.88
2018-01-01T03:53:31.047Z,5.91
2018-01-01T03:54:35.892Z,6.06
2018-01-01T03:55:40.760Z,6.00
2018-01-01T03:56:45.595Z,6.09
2018-01-01T03:57:50.800Z,6.11
2018-01-01T03:58:55.687Z,5.98
2018-01-01T04:00:00.583Z,6.04
2018-01-01T04:01:05.337Z,6.01
2018-01-01T04:02:10.403Z,6.11
2018-01-01T04:03:15.681Z,6.04
2018-01-01T04:04:21.058Z,5.96
2018-01-01T04:05:26.042Z,6.00
2018-01-01T04:06:31.025Z,6.04
2018-01-01T04:07:36.005Z,6.09
2018-01-01T04:08:40.943Z,6.11
2018-01-01T04:09:45.849Z,6.00
2018-01-01T04:10:51.140Z,6.04
2018-01-01T04:11:56.083Z,5.98
2018-01-01T04:13:01.034Z,6.05
2018-01-01T04:14:05.928Z,6.13
2018-01-01T04:15:10.850Z,6.14
2018-01-01T04:16:16.035Z,6.06
2018-01-01T04:17:21.280Z,6.00
2018-01-01T04:18:26.258Z,5.99
2018-01-01T04:19:31.228Z,5.93
2018-01-01T04:20:36.134Z,5.94
2018-01-01T04:21:40.970Z,6.03
2018-01-01T04:22:45.897Z,6.05
2018-01-01T04:23:51.287Z,5.93
2018-01-01T04:24:56.216Z,5.74
2018-01-01T04:26:01.088Z,5.79
2018-01-01T04:27:06.045Z,5.78
2018-01-01T04:28:10.957Z,5.89
2018-01-01T04:29:16.005Z,5.93
2018-01-01T04:30:21.401Z,5.84
2018-01-01T04:31:26.319Z,5.87
2018-01-01T04:32:31.249Z,5.95
2018-01-01T04:33:36.832Z,6.01
2018-01-01T04:34:41.773Z,5.91
2018-01-01T04:35:46.742Z,6.02
2018-01-01T04:36:51.998Z,5.83
2018-01-01T04:37:56.804Z,6.01
2018-01-01T04:39:01.585Z,5.97
2018-01-01T04:40:06.335Z,5.98
2018-01-01T04:41:11.151Z,5.97
2018-01-01T04:42:15.962Z,5.94
2018-01-01T04:43:21.117Z,5.99
2018-01-01T04:44:26.040Z,6.03
2018-01-01T04:45:30.945Z,6.06
2018-01-01T04:46:36.144Z,6.07
2018-01-01T04:47:41.107Z,6.01
2018-01-01T04:48:46.072Z,6.10
2018-01-01T04:49:51.362Z,6.10
2018-01-01T04:50:56.218Z,6.18
2018-01-01T04:52:01.154Z,6.06
2018-01-01T04:53:06.144Z,6.19
2018-01-01T04:54:11.186Z,6.20
2018-01-01T04:55:16.150Z,6.12
2018-01-01T04:56:21.608Z,5.96
2018-01-01T04:57:27.134Z,6.05
2018-01-01T04:58:32.070Z,6.06
2018-01-01T04:59:37.042Z,6.13
2018-01-01T05:00:41.999Z,6.10
2018-01-01T05:01:46.898Z,6.06
2018-01-01T05:02:52.168Z,6.05
2018-01-01T05:03:57.067Z,6.05
2018-01-01T05:05:02.393Z,6.02
2018-01-01T05:06:07.253Z,6.09
2018-01-01T05:07:12.601Z,6.07
2018-01-01T05:08:17.415Z,6.03
2018-01-01T05:09:22.769Z,6.05
2018-01-01T05:10:27.634Z,6.11
2018-01-01T05:11:32.486Z,6.07
2018-01-01T05:12:37.383Z,6.01
2018-01-01T05:13:42.216Z,6.20
2018-01-01T05:14:47.940Z,6.18
2018-01-01T05:15:53.089Z,6.21
2018-01-01T05:16:57.908Z,6.10
2018-01-01T05:18:02.717Z,6.05
2018-01-01T05:19:07.650Z,6.08
2018-01-01T05:20:12.499Z,6.08
2018-01-01T05:21:17.431Z,6.08
2018-01-01T05:22:22.632Z,6.16
2018-01-01T05:23:27.734Z,6.18
2018-01-01T05:24:33.341Z,6.12
2018-01-01T05:25:38.207Z,6.01
2018-01-01T05:26:43.449Z,6.07
2018-01-01T05:27:48.340Z,6.10
2018-01-01T05:28:53.620Z,6.17
2018-01-01T05:29:58.505Z,6.17
2018-01-01T05:31:03.338Z,6.17
2018-01-01T05:32:08.198Z,6.16
2018-01-01T05:33:13.901Z,6.20
2018-01-01T05:34:18.698Z,6.11
2018-01-01T05:35:23.913Z,6.12
2018-01-01T05:36:28.665Z,6.12
2018-01-01T05:37:33.441Z,5.98
2018-01-01T05:38:38.201Z,5.78
2018-01-01T05:39:43.301Z,5.52
2018-01-01T05:40:48.143Z,5.43
2018-01-01T05:41:53.494Z,5.46
2018-01-01T05:42:58.325Z,5.41
2018-01-01T05:44:03.029Z,5.41
2018-01-01T05:45:07.698Z,5.44
2018-01-01T05:46:12.401Z,5.46
2018-01-01T05:47:17.090Z,5.39
2018-01-01T05:48:22.283Z,5.48
2018-01-01T05:49:27.006Z,5.53
2018-01-01T05:50:31.938Z,5.51
2018-01-01T05:51:36.760Z,5.45
2018-01-01T05:52:41.583Z,5.42
2018-01-01T05:53:46.484Z,5.44
2018-01-01T05:54:52.340Z,5.34
2018-01-01T05:55:57.243Z,5.39
2018-01-01T05:57:02.113Z,5.33
2018-01-01T05:58:06.993Z,5.35
2018-01-01T05:59:11.899Z,5.46
2018-01-01T06:00:16.673Z,5.49
2018-01-01T06:01:21.838Z,5.58
2018-01-01T06:02:26.765Z,5.65
2018-01-01T06:03:31.517Z,5.64
2018-01-01T06:04:36.477Z,5.56
2018-01-01T06:05:41.421Z,5.71
2018-01-01T06:06:46.348Z,5.63
2018-01-01T06:07:51.636Z,5.53
2018-01-01T06:08:56.520Z,5.51
2018-01-01T06:10:01.457Z,5.53
2018-01-01T06:11:06.438Z,5.70
2018-01-01T06:12:11.384Z,5.67
2018-01-01T06:13:16.733Z,5.62
2018-01-01T06:14:22.116Z,5.56
2018-01-01T06:15:27.087Z,5.62
2018-01-01T06:16:32.020Z,5.57
2018-01-01T06:17:36.966Z,5.56
2018-01-01T06:18:41.890Z,5.50
2018-01-01T06:19:46.826Z,5.48
2018-01-01T06:20:52.286Z,5.44
2018-01-01T06:21:57.237Z,5.60
2018-01-01T06:23:02.164Z,5.62
2018-01-01T06:24:07.076Z,5.67
2018-01-01T06:25:12.345Z,5.56
2018-01-01T06:26:17.134Z,5.67
2018-01-01T06:27:22.232Z,5.50
2018-01-01T06:28:27.962Z,5.54
2018-01-01T06:29:35.368Z,5.47
2018-01-01T06:30:42.753Z,5.43
2018-01-01T06:31:48.377Z,5.45
2018-01-01T06:32:53.310Z,5.44
2018-01-01T06:33:58.924Z,5.51
2018-01-01T06:35:03.868Z,5.50
2018-01-01T06:36:08.782Z,5.45
2018-01-01T06:37:13.737Z,5.34
2018-01-01T06:38:18.649Z,5.30
2018-01-01T06:39:23.651Z,5.26
2018-01-01T06:40:29.043Z,5.16
2018-01-01T06:41:33.980Z,5.14
2018-01-01T06:42:38.966Z,5.26
2018-01-01T06:43:43.994Z,5.30
2018-01-01T06:44:48.943Z,5.32
2018-01-01T06:45:54.862Z,5.17
2018-01-01T06:47:00.224Z,5.17
2018-01-01T06:48:05.157Z,5.06
2018-01-01T06:49:10.095Z,4.97
2018-01-01T06:50:15.023Z,5.17
2018-01-01T06:51:19.924Z,5.18
2018-01-01T06:52:24.832Z,5.14
2018-01-01T06:53:30.109Z,5.08
2018-01-01T06:54:35.068Z,5.10
2018-01-01T06:55:39.997Z,4.95
2018-01-01T06:56:44.934Z,4.96
2018-01-01T06:57:49.842Z,4.94
2018-01-01T06:58:54.739Z,4.88
2018-01-01T07:00:00.077Z,4.83
2018-01-01T07:01:04.836Z,4.91
2018-01-01T07:02:09.583Z,4.85
2018-01-01T07:03:14.163Z,4.69
2018-01-01T07:04:18.793Z,4.71
2018-01-01T07:05:23.429Z,4.50
2018-01-01T07:06:29.386Z,4.33
2018-01-01T07:07:34.313Z,4.33
2018-01-01T07:08:39.142Z,4.33
2018-01-01T07:09:44.012Z,4.21
2018-01-01T07:10:48.789Z,4.14
2018-01-01T07:11:53.475Z,4.22
2018-01-01T07:12:58.538Z,4.10
2018-01-01T07:14:03.246Z,4.10
2018-01-01T07:15:07.981Z,4.15
2018-01-01T07:16:12.685Z,4.12
2018-01-01T07:17:18.281Z,4.22
2018-01-01T07:18:22.973Z,4.13
2018-01-01T07:19:28.272Z,4.15
2018-01-01T07:20:33.084Z,4.27
2018-01-01T07:21:37.907Z,4.20
2018-01-01T07:22:42.742Z,4.23
2018-01-01T07:23:47.633Z,4.29
2018-01-01T07:24:52.465Z,4.25
2018-01-01T07:25:58.188Z,4.29
2018-01-01T07:27:03.043Z,4.39
2018-01-01T07:28:07.850Z,4.61
2018-01-01T07:29:12.673Z,4.76
2018-01-01T07:30:17.613Z,4.74
2018-01-01T07:31:22.432Z,4.80
2018-01-01T07:32:27.729Z,4.80
2018-01-01T07:33:32.811Z,4.73
2018-01-01T07:34:37.717Z,4.78
2018-01-01T07:35:42.400Z,4.86
2018-01-01T07:36:47.109Z,4.94
2018-01-01T07:37:51.932Z,5.01
2018-01-01T07:38:57.109Z,4.95
2018-01-01T07:40:01.790Z,4.90
2018-01-01T07:41:06.481Z,4.90
2018-01-01T07:42:11.130Z,4.90
2018-01-01T07:43:15.788Z,4.92
2018-01-01T07:44:20.609Z,4.93
2018-01-01T07:45:25.919Z,4.90
2018-01-01T07:46:30.775Z,4.93
2018-01-01T07:47:35.633Z,4.91
2018-01-01T07:48:40.499Z,4.94
2018-01-01T07:49:45.408Z,4.96
2018-01-01T07:50:50.242Z,4.98
2018-01-01T07:51:55.622Z,4.96
2018-01-01T07:53:00.532Z,5.08
2018-01-01T07:54:05.425Z,4.99
2018-01-01T07:55:10.264Z,4.97
2018-01-01T07:56:15.189Z,5.01
2018-01-01T07:57:20.011Z,5.06
2018-01-01T07:58:25.109Z,5.06
2018-01-01T07:59:29.868Z,4.99
2018-01-01T08:00:34.645Z,4.93
2018-01-01T08:01:39.590Z,4.93
2018-01-01T08:02:44.319Z,5.12
2018-01-01T08:03:49.085Z,5.19
2018-01-01T08:04:54.265Z,5.20
2018-01-01T08:05:59.160Z,5.05
2018-01-01T08:07:03.923Z,5.08
2018-01-01T08:08:08.713Z,5.14
2018-01-01T08:09:13.474Z,5.02
2018-01-01T08:10:18.243Z,5.09
2018-01-01T08:11:23.317Z,5.14
2018-01-01T08:12:28.136Z,5.15
2018-01-01T08:13:32.938Z,5.07
2018-01-01T08:14:37.805Z,5.08
2018-01-01T08:15:42.612Z,5.04
2018-01-01T08:16:47.679Z,5.10
2018-01-01T08:17:52.892Z,5.18
2018-01-01T08:18:57.557Z,5.15
2018-01-01T08:20:02.262Z,5.14
2018-01-01T08:21:07.545Z,5.15
2018-01-01T08:22:12.488Z,5.16
2018-01-01T08:23:17.425Z,5.23
2018-01-01T08:24:22.325Z,5.22
2018-01-01T08:25:27.225Z,5.16
2018-01-01T08:26:32.236Z,5.13
2018-01-01T08:27:37.112Z,5.17
2018-01-01T08:28:42.002Z,5.30
2018-01-01T08:29:46.856Z,5.23
2018-01-01T08:30:52.083Z,5.17
2018-01-01T08:31:56.953Z,5.27
2018-01-01T08:33:01.892Z,5.28
2018-01-01T08:34:07.949Z,5.34
2018-01-01T08:35:12.781Z,5.32
2018-01-01T08:36:17.601Z,5.39
2018-01-01T08:37:22.800Z,5.31
2018-01-01T08:38:27.677Z,5.35
2018-01-01T08:39:32.516Z,5.57
2018-01-01T08:40:37.381Z,5.48
2018-01-01T08:41:42.314Z,5.31
2018-01-01T08:42:47.180Z,5.31
2018-01-01T08:43:52.492Z,5.29
2018-01-01T08:44:57.327Z,5.30
2018-01-01T08:46:02.176Z,5.45
2018-01-01T08:47:07.025Z,5.39
2018-01-01T08:48:11.853Z,5.39
2018-01-01T08:49:16.806Z,5.45
2018-01-01T08:50:22.069Z,5.33
2018-01-01T08:51:26.927Z,5.37
2018-01-01T08:52:31.781Z,5.41
2018-01-01T08:53:36.637Z,5.33
2018-01-01T08:54:41.480Z,5.33
2018-01-01T08:55:46.393Z,5.33
2018-01-01T08:56:51.557Z,5.38
2018-01-01T08:57:56.512Z,5.35
2018-01-01T08:59:01.396Z,5.34
2018-01-01T09:00:07.062Z,5.29
2018-01-01T09:01:11.958Z,5.36
2018-01-01T09:02:16.946Z,5.33
2018-01-01T09:03:22.134Z,5.31
2018-01-01T09:04:27.064Z,5.25
2018-01-01T09:05:31.903Z,5.30
2018-01-01T09:06:36.774Z,5.32
2018-01-01T09:07:41.615Z,5.44
2018-01-01T09:08:46.786Z,5.38
2018-01-01T09:09:52.623Z,5.33
2018-01-01T09:10:57.464Z,5.42
2018-01-01T09:12:02.245Z,5.44
2018-01-01T09:13:07.091Z,5.35
2018-01-01T09:14:11.897Z,5.35
2018-01-01T09:15:16.750Z,5.42
2018-01-01T09:16:21.873Z,5.50
2018-01-01T09:17:26.702Z,5.49
2018-01-01T09:18:32.474Z,5.47
2018-01-01T09:19:37.251Z,5.55
2018-01-01T09:20:42.868Z,5.44
2018-01-01T09:21:47.652Z,5.48
2018-01-01T09:22:52.992Z,5.54
2018-01-01T09:23:57.847Z,5.50
2018-01-01T09:25:02.776Z,5.53
2018-01-01T09:26:07.635Z,5.61
2018-01-01T09:27:12.771Z,5.66
2018-01-01T09:28:17.660Z,5.66
2018-01-01T09:29:23.354Z,5.76
2018-01-01T09:30:28.253Z,5.64
2018-01-01T09:31:33.134Z,5.68
2018-01-01T09:32:38.027Z,5.66
2018-01-01T09:33:42.896Z,5.74
2018-01-01T09:34:47.826Z,5.62
2018-01-01T09:35:53.149Z,5.64
2018-01-01T09:36:58.178Z,5.61
2018-01-01T09:38:03.078Z,5.70
2018-01-01T09:39:08.002Z,5.72
2018-01-01T09:40:12.902Z,5.65
2018-01-01T09:41:17.757Z,5.67
2018-01-01T09:42:23.099Z,5.84
2018-01-01T09:43:28.007Z,5.81
2018-01-01T09:44:32.898Z,6.05
2018-01-01T09:45:37.819Z,6.18
2018-01-01T09:46:42.733Z,6.15
2018-01-01T09:47:47.663Z,6.64
2018-01-01T09:48:52.998Z,6.47
2018-01-01T09:49:57.848Z,6.60
2018-01-01T09:51:02.694Z,6.34
2018-01-01T09:52:07.575Z,6.97
2018-01-01T09:53:12.453Z,7.11
2018-01-01T09:54:17.335Z,6.70
2018-01-01T09:55:22.568Z,6.40
2018-01-01T09:56:27.776Z,6.65
2018-01-01T09:57:32.637Z,6.92
2018-01-01T09:58:37.491Z,7.23
2018-01-01T09:59:43.249Z,7.03
2018-01-01T10:00:48.179Z,6.59
2018-01-01T10:01:53.489Z,6.51
2018-01-01T10:02:58.371Z,6.20
2018-01-01T10:04:03.296Z,6.29
2018-01-01T10:05:08.236Z,6.23
2018-01-01T10:06:13.633Z,6.21
2018-01-01T10:07:18.516Z,6.11
2018-01-01T10:08:23.969Z,6.06
2018-01-01T10:09:28.914Z,6.08
2018-01-01T10:10:33.819Z,6.07
2018-01-01T10:11:38.747Z,6.02
2018-01-01T10:12:43.609Z,6.19
2018-01-01T10:13:48.459Z,6.20
2018-01-01T10:14:53.694Z,6.21
2018-01-01T10:15:58.532Z,6.05
2018-01-01T10:17:03.418Z,6.20
2018-01-01T10:18:08.280Z,6.14
2018-01-01T10:19:13.241Z,6.02
2018-01-01T10:20:18.104Z,6.11
2018-01-01T10:21:23.410Z,6.09
2018-01-01T10:22:28.344Z,6.07
2018-01-01T10:23:33.209Z,6.03
2018-01-01T10:24:38.151Z,6.12
2018-01-01T10:25:43.100Z,5.99
2018-01-01T10:26:47.948Z,5.96
2018-01-01T10:27:53.254Z,6.00
2018-01-01T10:28:58.213Z,6.02
2018-01-01T10:30:03.801Z,6.04
2018-01-01T10:31:08.668Z,5.93
2018-01-01T10:32:13.523Z,5.99
2018-01-01T10:33:18.461Z,5.93
2018-01-01T10:34:23.796Z,6.01
2018-01-01T10:35:28.888Z,6.01
2018-01-01T10:36:33.951Z,6.14
2018-01-01T10:37:39.047Z,6.09
2018-01-01T10:38:44.051Z,6.19
2018-01-01T10:39:48.936Z,6.03
2018-01-01T10:40:54.245Z,6.08
2018-01-01T10:41:59.249Z,5.98
2018-01-01T10:43:04.194Z,6.00
2018-01-01T10:44:09.044Z,5.91
2018-01-01T10:45:14.178Z,5.82
2018-01-01T10:46:19.387Z,5.77
2018-01-01T10:47:24.344Z,5.75
2018-01-01T10:48:29.321Z,5.71
2018-01-01T10:49:34.886Z,5.70
2018-01-01T10:50:39.756Z,5.59
2018-01-01T10:51:44.818Z,5.25
2018-01-01T10:52:49.961Z,5.10
2018-01-01T10:53:54.645Z,5.20
2018-01-01T10:54:59.317Z,5.21
2018-01-01T10:56:04.008Z,5.22
2018-01-01T10:57:08.873Z,5.13
2018-01-01T10:58:13.745Z,4.84
2018-01-01T10:59:19.031Z,4.82
2018-01-01T11:00:23.864Z,4.89
2018-01-01T11:01:28.751Z,4.84
2018-01-01T11:02:33.732Z,5.04
2018-01-01T11:03:38.590Z,5.04
2018-01-01T11:04:43.444Z,5.05
2018-01-01T11:05:48.692Z,5.14
2018-01-01T11:06:53.635Z,5.25
2018-01-01T11:07:58.544Z,5.17
2018-01-01T11:09:03.555Z,5.15
2018-01-01T11:10:08.441Z,5.10
2018-01-01T11:11:13.389Z,5.19
2018-01-01T11:12:19.831Z,5.21
2018-01-01T11:13:24.865Z,5.28
2018-01-01T11:14:29.716Z,5.30
2018-01-01T11:15:34.620Z,5.27
2018-01-01T11:16:39.350Z,5.31
2018-01-01T11:17:44.053Z,5.27
2018-01-01T11:18:49.078Z,5.23
2018-01-01T11:19:53.925Z,5.23
2018-01-01T11:20:58.638Z,5.22
2018-01-01T11:22:03.498Z,5.20
2018-01-01T11:23:08.422Z,5.20
2018-01-01T11:24:13.472Z,5.23
2018-01-01T11:25:18.672Z,5.19
2018-01-01T11:26:23.483Z,5.22
2018-01-01T11:27:28.211Z,5.38
2018-01-01T11:28:32.932Z,5.62
2018-01-01T11:29:37.638Z,5.87
2018-01-01T11:30:42.494Z,6.64
2018-01-01T11:31:47.823Z,6.73
2018-01-01T11:32:52.717Z,6.59
2018-01-01T11:33:57.706Z,6.93
2018-01-01T11:35:03.560Z,6.60
2018-01-01T11:36:08.403Z,6.83
2018-01-01T11:37:13.246Z,7.46
2018-01-01T11:38:18.475Z,7.93
2018-01-01T11:39:23.360Z,7.37
2018-01-01T11:40:28.258Z,7.50
2018-01-01T11:41:33.135Z,7.16
2018-01-01T11:42:38.055Z,7.76
2018-01-01T11:43:43.078Z,7.91
2018-01-01T11:44:48.425Z,7.59
2018-01-01T11:45:53.318Z,7.83
2018-01-01T11:46:58.173Z,8.09
2018-01-01T11:48:03.022Z,7.88
2018-01-01T11:49:07.952Z,8.16
2018-01-01T11:50:12.808Z,8.58
2018-01-01T11:51:18.132Z,8.04
2018-01-01T11:52:23.088Z,7.03
2018-01-01T11:53:27.967Z,6.66
2018-01-01T11:54:32.795Z,6.79
2018-01-01T11:55:37.702Z,7.02
2018-01-01T11:56:42.627Z,8.23
2018-01-01T11:57:48.872Z,8.24
2018-01-01T11:58:53.735Z,7.57
2018-01-01T11:59:58.777Z,7.08
2018-01-01T12:01:03.664Z,8.04
2018-01-01T12:02:08.455Z,7.72
2018-01-01T12:03:13.283Z,7.69
2018-01-01T12:04:18.665Z,7.59
2018-01-01T12:05:23.528Z,7.28
2018-01-01T12:06:28.470Z,6.76
2018-01-01T12:07:33.394Z,6.81
2018-01-01T12:08:38.307Z,6.91
2018-01-01T12:09:43.316Z,6.98
2018-01-01T12:10:48.570Z,7.06
2018-01-01T12:11:53.473Z,6.96
2018-01-01T12:12:58.311Z,6.26
2018-01-01T12:14:03.630Z,6.29
2018-01-01T12:15:08.680Z,6.09
2018-01-01T12:16:13.588Z,6.14
2018-01-01T12:17:19.276Z,6.20
2018-01-01T12:18:24.232Z,6.22
2018-01-01T12:19:29.139Z,6.25
2018-01-01T12:20:34.891Z,6.17
2018-01-01T12:21:39.836Z,6.27
2018-01-01T12:22:44.773Z,6.14
2018-01-01T12:23:50.036Z,6.27
2018-01-01T12:24:54.998Z,6.45
2018-01-01T12:25:59.927Z,6.50
2018-01-01T12:27:04.871Z,6.36
2018-01-01T12:28:09.728Z,6.42
2018-01-01T12:29:14.507Z,6.48
2018-01-01T12:30:19.713Z,6.65
2018-01-01T12:31:24.441Z,6.45
2018-01-01T12:32:29.177Z,6.53
2018-01-01T12:33:34.672Z,6.60
2018-01-01T12:34:39.611Z,6.72
2018-01-01T12:35:44.416Z,6.36
2018-01-01T12:36:49.647Z,6.47
2018-01-01T12:37:54.488Z,6.52
2018-01-01T12:39:00.013Z,6.29
2018-01-01T12:40:04.910Z,6.20
2018-01-01T12:41:09.756Z,6.30
2018-01-01T12:42:14.671Z,6.30
2018-01-01T12:43:19.999Z,6.18
2018-01-01T12:44:24.836Z,6.23
2018-01-01T12:45:29.648Z,6.20
2018-01-01T12:46:35.088Z,6.25
2018-01-01T12:47:40.034Z,6.30
2018-01-01T12:48:44.915Z,6.27
2018-01-01T12:49:50.135Z,6.20
2018-01-01T12:50:54.952Z,6.27
2018-01-01T12:51:59.786Z,6.26
2018-01-01T12:53:04.747Z,6.30
2018-01-01T12:54:09.675Z,6.35
2018-01-01T12:55:14.567Z,6.36
2018-01-01T12:56:19.850Z,6.37
2018-01-01T12:57:24.730Z,6.48
2018-01-01T12:58:29.622Z,6.48
2018-01-01T12:59:34.580Z,6.45
2018-01-01T13:00:39.506Z,6.29
2018-01-01T13:01:44.477Z,6.48
2018-01-01T13:02:49.790Z,6.56
2018-01-01T13:03:54.762Z,6.49
2018-01-01T13:04:59.691Z,6.52
2018-01-01T13:06:04.535Z,6.46
2018-01-01T13:07:09.413Z,6.41
2018-01-01T13:08:14.310Z,6.42
2018-01-01T13:09:19.192Z,6.24
2018-01-01T13:10:24.049Z,6.18
2018-01-01T13:11:28.936Z,6.22
2018-01-01T13:12:33.873Z,6.18
2018-01-01T13:13:38.760Z,6.25
2018-01-01T13:14:43.950Z,6.27
2018-01-01T13:15:48.674Z,6.30
2018-01-01T13:16:53.366Z,6.31
2018-01-01T13:17:58.148Z,6.34
2018-01-01T13:19:03.753Z,6.35
2018-01-01T13:20:08.673Z,6.37
2018-01-01T13:21:13.947Z,6.26
2018-01-01T13:22:18.816Z,6.23
2018-01-01T13:23:23.722Z,6.20
2018-01-01T13:24:28.735Z,6.21
2018-01-01T13:25:33.642Z,6.32
2018-01-01T13:26:38.484Z,6.28
2018-01-01T13:27:43.809Z,6.35
2018-01-01T13:28:48.749Z,6.29
2018-01-01T13:29:53.643Z,6.25
2018-01-01T13:30:58.667Z,6.19
2018-01-01T13:32:03.525Z,6.12
2018-01-01T13:33:08.412Z,6.10
2018-01-01T13:34:13.733Z,6.17
2018-01-01T13:35:18.617Z,6.07
2018-01-01T13:36:23.484Z,6.09
2018-01-01T13:37:28.365Z,6.13
2018-01-01T13:38:33.257Z,6.12
2018-01-01T13:39:38.990Z,6.09
2018-01-01T13:40:45.042Z,5.99
2018-01-01T13:41:49.901Z,5.98
2018-01-01T13:42:54.756Z,5.94
2018-01-01T13:43:59.595Z,5.98
2018-01-01T13:45:05.688Z,6.08
2018-01-01T13:46:10.563Z,6.08
2018-01-01T13:47:16.092Z,6.07
2018-01-01T13:48:20.794Z,6.08
2018-01-01T13:49:26.493Z,6.05
2018-01-01T13:50:31.169Z,6.06
2018-01-01T13:51:35.866Z,6.04
2018-01-01T13:52:40.739Z,6.08
2018-01-01T13:53:45.878Z,6.07
2018-01-01T13:54:50.776Z,6.07
2018-01-01T13:55:55.715Z,6.05
2018-01-01T13:57:00.529Z,6.00
2018-01-01T13:58:05.480Z,6.04
2018-01-01T13:59:10.329Z,6.07
2018-01-01T14:00:15.581Z,6.05
2018-01-01T14:01:20.489Z,6.05
2018-01-01T14:02:25.403Z,6.04
2018-01-01T14:03:30.227Z,6.04
2018-01-01T14:04:35.061Z,6.06
2018-01-01T14:05:39.953Z,6.06
2018-01-01T14:06:45.192Z,6.11
2018-01-01T14:07:50.101Z,6.05
2018-01-01T14:08:55.044Z,6.09
2018-01-01T14:10:00.070Z,6.12
2018-01-01T14:11:04.930Z,6.11
2018-01-01T14:12:09.799Z,6.14
2018-01-01T14:13:15.029Z,6.13
2018-01-01T14:14:19.923Z,6.14
2018-01-01T14:15:24.790Z,6.15
2018-01-01T14:16:29.713Z,6.17
2018-01-01T14:17:34.582Z,6.16
2018-01-01T14:18:39.362Z,6.15
2018-01-01T14:19:44.401Z,6.17
2018-01-01T14:20:49.307Z,6.16
2018-01-01T14:21:54.147Z,6.13
2018-01-01T14:22:59.068Z,6.15
2018-01-01T14:24:04.029Z,6.17
2018-01-01T14:25:08.973Z,6.17
2018-01-01T14:26:14.149Z,6.11